• Join FlightAware (Why Join?)
  • Login
  • US Flag 
12:48PM EDT


 

Airport Tracker/Info


-or-


 

Live Flight TrackerFlight Track Log ✈ EVA6079 ✈ 16-May-2013 ✈ RCTP / TPE - EDDF / FRA

Flight Track Log - Related Links

Times and Time Zones

All times are in EDT time to prevent confusion due to time zone crossing. See the EVA6079 flight status page for this flight to view local times or setup timezone preferences in your user account.

Time Position Orientation Groundspeed Altitude Reporting Facility
EDT Latitude Longitude Course Direction KTS MPH feet Rate Location/Type
08:20PM 25.0620 121.2250 227° Southwest 181 208 600  Level FlightAware
08:21PM 25.0460 121.2040 230° Southwest 178 205 1,700 1,500 Climbing FlightAware
08:21PM 25.0280 121.1820 228° Southwest 213 245 2,100 1,620 Climbing FlightAware
08:22PM 25.0140 121.1590 236° Southwest 205 236 3,200 2,400 Climbing FlightAware
08:22PM 25.0120 121.1470 260° West 209 241 3,700 1,920 Climbing FlightAware
08:23PM 25.0220 121.1200 292° West 226 260 4,500 1,500 Climbing FlightAware
08:23PM 25.0400 121.0910 304° West 251 289 5,100 1,260 Climbing FlightAware
08:24PM 25.0620 121.0560 305° West 278 320 5,800 1,500 Climbing FlightAware
08:24PM 25.0810 121.0260 305° West 294 338 6,500 2,160 Climbing FlightAware
08:24PM 25.1040 120.9880 304° West 300 345 7,800 2,580 Climbing FlightAware
08:25PM 25.1180 120.9460 290° West 294 338 9,100 2,520 Climbing FlightAware
08:25PM 25.1160 120.9310 262° West 292 336 9,500 2,400 Climbing FlightAware
08:25PM 25.1060 120.9100 242° Southwest 294 338 10,100 1,740 Climbing FlightAware
08:26PM 25.0660 120.8670 224° Southwest 326 375 11,100 1,260 Climbing FlightAware
08:27PM 25.0130 120.8120 223° Southwest 372 428 11,900 1,500 Climbing FlightAware
08:27PM 24.9630 120.7580 224° Southwest 385 443 13,300 2,160 Climbing FlightAware
08:28PM 24.9030 120.6950 224° Southwest 393 452 15,000 2,100 Climbing FlightAware
08:29PM 24.8520 120.6400 224° Southwest 402 463 16,300 1,980 Climbing FlightAware
08:30PM 24.7970 120.5800 225° Southwest 409 471 17,700 1,920 Climbing FlightAware
08:30PM 24.7320 120.5130 223° Southwest 421 484 19,100 1,740 Climbing FlightAware
08:31PM 24.6720 120.4640 217° Southwest 430 495 20,200 1,380 Climbing FlightAware
08:32PM 24.6140 120.4090 221° Southwest 439 505 21,000 1,560 Climbing FlightAware
08:32PM 24.5630 120.3500 226° Southwest 436 502 22,200 1,500 Climbing FlightAware
08:33PM 24.5080 120.2870 226° Southwest 442 509 23,200 1,260 Climbing FlightAware
08:34PM 24.4160 120.1820 226° Southwest 454 522 24,600 1,440 Climbing FlightAware
08:35PM 24.3450 120.1000 226° Southwest 463 533 25,600 1,260 Climbing FlightAware
08:35PM 24.2940 120.0420 226° Southwest 468 539 26,300 1,020 Climbing FlightAware
08:36PM 24.2190 119.9570 226° Southwest 480 552 27,100 1,020 Climbing FlightAware
08:37PM 24.1530 119.8820 226° Southwest 488 562 27,800 900 Climbing FlightAware
08:38PM 24.0830 119.8030 226° Southwest 497 572 28,400 840 Climbing FlightAware
08:38PM 24.0200 119.7310 226° Southwest 503 579 29,000 1,020 Climbing FlightAware
08:39PM 23.9530 119.6560 226° Southwest 504 580 29,800 660 Climbing FlightAware
08:40PM 23.8850 119.5790 226° Southwest 509 586 30,000 120 Climbing FlightAware
08:40PM 23.8230 119.5110 225° Southwest 506 582 30,000  Level FlightAware
08:41PM 23.7590 119.4480 222° Southwest 502 578 30,000  Level FlightAware
08:42PM 23.6880 119.3820 220° Southwest 501 577 30,000  Level FlightAware
08:42PM 23.5920 119.2960 219° Southwest 501 577 30,000  Level FlightAware
08:43PM 23.5080 119.2220 219° Southwest 502 578 30,000  Level FlightAware
08:44PM 23.4520 119.1730 219° Southwest 501 577 30,000  Level FlightAware
08:45PM 23.3650 119.0970 219° Southwest 500 575 30,000  Level FlightAware
08:45PM 23.2930 119.0340 219° Southwest 506 582 30,000  Level FlightAware
08:46PM 23.1970 118.9490 219° Southwest 510 587 30,000  Level FlightAware
08:47PM 23.1100 118.8730 219° Southwest 512 589 30,000  Level FlightAware
08:48PM 23.0410 118.8120 219° Southwest 514 592 30,000  Level FlightAware
08:48PM 22.9540 118.7370 218° Southwest 512 589 30,000  Level FlightAware
08:49PM 22.8740 118.6660 219° Southwest 506 582 30,000  Level FlightAware
08:50PM 22.7960 118.5980 219° Southwest 505 581 30,000  Level FlightAware
08:50PM 22.7340 118.5440 219° Southwest 506 582 30,000  Level FlightAware
08:51PM 22.6680 118.4860 219° Southwest 509 586 30,000  Level FlightAware
08:52PM 22.5790 118.4090 219° Southwest 509 586 30,000  Level FlightAware
08:52PM 22.4940 118.3350 219° Southwest 509 586 30,000  Level FlightAware
08:53PM 22.3850 118.2400 219° Southwest 511 588 30,000  Level FlightAware
08:54PM 22.3110 118.1770 218° Southwest 511 588 30,000  Level FlightAware
08:55PM 22.2200 118.1100 214° Southwest 515 593 30,000  Level FlightAware
08:55PM 22.1370 118.0600 209° Southwest 515 593 30,000  Level FlightAware
08:56PM 22.0440 118.0070 208° Southwest 515 593 30,000  Level FlightAware
08:57PM 21.9610 117.9590 208° Southwest 514 592 30,000  Level FlightAware
08:58PM 21.8770 117.9100 208° Southwest 502 578 30,000  Level FlightAware
08:58PM 21.7940 117.8620 208° Southwest 500 575 30,000  Level FlightAware
08:59PM 21.7020 117.8090 208° Southwest 499 574 30,000  Level FlightAware
09:00PM 21.6130 117.7570 209° Southwest 499 574 30,000  Level FlightAware
09:00PM 21.5570 117.7250 208° Southwest 500 575 30,000  Level FlightAware
09:01PM 21.4730 117.6770 208° Southwest 500 575 30,000  Level FlightAware
09:02PM 21.4040 117.6370 208° Southwest 500 575 30,000  Level FlightAware
09:02PM 21.3340 117.5970 208° Southwest 500 575 30,000  Level FlightAware
09:03PM 21.2470 117.5480 208° Southwest 500 575 30,000  Level FlightAware
09:04PM 21.1780 117.5080 208° Southwest 500 575 30,000  Level FlightAware
09:05PM 21.1080 117.4690 207° Southwest 500 575 30,000  Level FlightAware
09:05PM 21.0390 117.4290 208° Southwest 500 575 30,000  Level FlightAware
09:06PM 20.9700 117.3900 208° Southwest 500 575 30,000  Level FlightAware
09:07PM 20.8830 117.3400 208° Southwest 500 575 30,000  Level FlightAware
09:07PM 20.8130 117.3010 208° Southwest 500 575 30,000  Level FlightAware
09:08PM 20.7440 117.2610 208° Southwest 500 575 30,000  Level FlightAware
09:09PM 20.6740 117.2220 208° Southwest 500 575 30,000  Level FlightAware
09:09PM 20.6050 117.1820 208° Southwest 500 575 30,000  Level FlightAware
09:10PM 20.5180 117.1330 208° Southwest 500 575 30,000 360 Level FlightAware
09:13PM 20.6750 117.0035 322° Northwest  Level Estimated
09:14PM 20.7437 116.9468 322° Northwest  Level Estimated
09:15PM 20.8124 116.8899 322° Northwest  Level Estimated
09:16PM 20.8811 116.8331 322° Northwest  Level Estimated
09:17PM 20.9497 116.7761 322° Northwest  Level Estimated
09:18PM 21.0184 116.7191 322° Northwest  Level Estimated
09:19PM 21.0870 116.6621 322° Northwest  Level Estimated
09:19PM 21.1250 115.1440 322° Northwest 502 578 34,000  Level FlightAware
09:20PM 21.1230 115.0510 269° West 502 578 34,000  Level FlightAware
09:21PM 21.1190 114.9450 268° West 502 578 34,000  Level FlightAware
09:21PM 21.1160 114.8610 268° West 502 578 34,000  Level FlightAware
09:22PM 21.1140 114.7760 269° West 502 578 34,000  Level FlightAware
09:23PM 21.1110 114.6920 268° West 502 578 34,000  Level FlightAware
09:23PM 21.1080 114.6070 268° West 502 578 34,000  Level FlightAware
09:24PM 21.1050 114.5010 268° West 502 578 34,000  Level FlightAware
09:26PM 21.0990 114.1890 269° West 505 581 34,000  Level FlightAware
09:26PM 21.0960 114.1030 268° West 505 581 34,000  Level FlightAware
09:27PM 21.0790 113.9860 261° West 506 582 34,000  Level FlightAware
09:28PM 21.0710 113.9020 264° West 506 582 34,000  Level FlightAware
09:28PM 21.0630 113.8170 264° West 506 582 34,000  Level FlightAware
09:29PM 21.0520 113.7110 264° West 506 582 34,000  Level FlightAware
09:30PM 21.0440 113.6260 264° West 506 582 34,000  Level FlightAware
09:30PM 21.0360 113.5410 264° West 506 582 34,000  Level FlightAware
09:31PM 21.0270 113.4560 264° West 506 582 34,000  Level FlightAware
09:32PM 21.0190 113.3710 264° West 506 582 34,000  Level FlightAware
09:32PM 21.0110 113.2870 264° West 506 582 34,000  Level FlightAware
09:33PM 21.0000 113.1810 264° West 506 582 34,000  Level FlightAware
09:34PM 20.9920 113.0960 264° West 506 582 34,000  Level FlightAware
09:35PM 20.9840 113.0110 264° West 506 582 34,000  Level FlightAware
09:35PM 20.9750 112.9260 264° West 506 582 34,000  Level FlightAware
09:36PM 20.9670 112.8420 264° West 506 582 34,000  Level FlightAware
09:39PM 21.1382 112.6940 321° Northwest  Level Estimated
09:40PM 21.2058 112.6354 321° Northwest  Level Estimated
09:41PM 21.2733 112.5769 321° Northwest  Level Estimated
09:42PM 21.3409 112.5182 321° Northwest  Level Estimated
09:43PM 21.4084 112.4595 321° Northwest  Level Estimated
09:44PM 21.4758 112.4008 321° Northwest  Level Estimated
09:45PM 21.5433 112.3420 321° Northwest  Level Estimated
09:46PM 21.6107 112.2831 321° Northwest  Level Estimated
09:47PM 21.6782 112.2242 321° Northwest  Level Estimated
09:48PM 21.7456 112.1653 321° Northwest  Level Estimated
09:49PM 21.8129 112.1062 321° Northwest  Level Estimated
09:50PM 21.8803 112.0472 321° Northwest  Level Estimated
09:51PM 21.9476 111.9881 321° Northwest  Level Estimated
09:52PM 22.0149 111.9289 321° Northwest  Level Estimated
09:53PM 22.0822 111.8696 321° Northwest  Level Estimated
09:54PM 22.1495 111.8103 321° Northwest  Level Estimated
09:55PM 22.2167 111.7510 321° Northwest  Level Estimated
09:56PM 22.2840 111.6916 321° Northwest  Level Estimated
09:57PM 22.3512 111.6321 321° Northwest  Level Estimated
09:58PM 22.4183 111.5726 321° Northwest  Level Estimated
09:59PM 22.4855 111.5130 321° Northwest  Level Estimated
10:00PM 22.5526 111.4533 321° Northwest  Level Estimated
10:01PM 22.6198 111.3936 321° Northwest  Level Estimated
10:02PM 22.6868 111.3339 321° Northwest  Level Estimated
10:03PM 22.7539 111.2741 321° Northwest  Level Estimated
10:04PM 22.8210 111.2142 321° Northwest  Level Estimated
10:05PM 22.8880 111.1543 321° Northwest  Level Estimated
10:06PM 22.9550 111.0943 321° Northwest  Level Estimated
10:07PM 23.0220 111.0342 320° Northwest  Level Estimated
10:08PM 23.0889 110.9741 320° Northwest  Level Estimated
10:09PM 23.1559 110.9139 320° Northwest  Level Estimated
10:10PM 23.2228 110.8537 320° Northwest  Level Estimated
10:11PM 23.2897 110.7934 320° Northwest  Level Estimated
10:12PM 23.3566 110.7331 320° Northwest  Level Estimated
10:13PM 23.4234 110.6727 320° Northwest  Level Estimated
10:14PM 23.4902 110.6122 320° Northwest  Level Estimated
10:15PM 23.5570 110.5516 320° Northwest  Level Estimated
10:16PM 23.6238 110.4910 320° Northwest  Level Estimated
10:17PM 23.6906 110.4304 320° Northwest  Level Estimated
10:18PM 23.7573 110.3697 320° Northwest  Level Estimated
10:19PM 23.8240 110.3089 320° Northwest  Level Estimated
10:20PM 23.8907 110.2480 320° Northwest  Level Estimated
10:21PM 23.9573 110.1871 320° Northwest  Level Estimated
10:22PM 24.0240 110.1261 320° Northwest  Level Estimated
10:23PM 24.0906 110.0651 320° Northwest  Level Estimated
10:24PM 24.1572 110.0040 320° Northwest  Level Estimated
10:25PM 24.2237 109.9428 320° Northwest  Level Estimated
10:26PM 24.2903 109.8816 320° Northwest  Level Estimated
10:27PM 24.3568 109.8203 320° Northwest  Level Estimated
10:28PM 24.4233 109.7590 320° Northwest  Level Estimated
10:29PM 24.4897 109.6975 320° Northwest  Level Estimated
10:30PM 24.5562 109.6360 320° Northwest  Level Estimated
10:31PM 24.6226 109.5745 320° Northwest  Level Estimated
10:32PM 24.6889 109.5129 320° Northwest  Level Estimated
10:33PM 24.7553 109.4512 320° Northwest  Level Estimated
10:34PM 24.8216 109.3895 320° Northwest  Level Estimated
10:35PM 24.8880 109.3276 320° Northwest  Level Estimated
10:36PM 24.9543 109.2658 320° Northwest  Level Estimated
10:37PM 25.0205 109.2038 320° Northwest  Level Estimated
10:38PM 25.0867 109.1418 320° Northwest  Level Estimated
10:39PM 25.1530 109.0797 320° Northwest  Level Estimated
10:40PM 25.2191 109.0176 320° Northwest  Level Estimated
10:41PM 25.2853 108.9554 320° Northwest  Level Estimated
10:42PM 25.3514 108.8931 320° Northwest  Level Estimated
10:43PM 25.4175 108.8307 320° Northwest  Level Estimated
10:44PM 25.4836 108.7683 320° Northwest  Level Estimated
10:45PM 25.5497 108.7058 320° Northwest  Level Estimated
10:46PM 25.6157 108.6432 319° Northwest  Level Estimated
10:47PM 25.6817 108.5806 319° Northwest  Level Estimated
10:48PM 25.7476 108.5179 319° Northwest  Level Estimated
10:49PM 25.8136 108.4551 319° Northwest  Level Estimated
10:50PM 25.8795 108.3923 319° Northwest  Level Estimated
10:51PM 25.9454 108.3294 319° Northwest  Level Estimated
10:52PM 26.0112 108.2664 319° Northwest  Level Estimated
10:53PM 26.0771 108.2034 319° Northwest  Level Estimated
10:54PM 26.1429 108.1403 319° Northwest  Level Estimated
10:55PM 26.2087 108.0771 319° Northwest  Level Estimated
10:56PM 26.2744 108.0138 319° Northwest  Level Estimated
10:57PM 26.3402 107.9505 319° Northwest  Level Estimated
10:58PM 26.4059 107.8871 319° Northwest  Level Estimated
10:59PM 26.4715 107.8236 319° Northwest  Level Estimated
11:00PM 26.5372 107.7600 319° Northwest  Level Estimated
11:01PM 26.6028 107.6964 319° Northwest  Level Estimated
11:02PM 26.6684 107.6327 319° Northwest  Level Estimated
11:03PM 26.7339 107.5690 319° Northwest  Level Estimated
11:04PM 26.7994 107.5051 319° Northwest  Level Estimated
11:05PM 26.8650 107.4412 319° Northwest  Level Estimated
11:06PM 26.9304 107.3772 319° Northwest  Level Estimated
11:07PM 26.9959 107.3131 319° Northwest  Level Estimated
11:08PM 27.0613 107.2490 319° Northwest  Level Estimated
11:09PM 27.1266 107.1848 319° Northwest  Level Estimated
11:10PM 27.1920 107.1205 319° Northwest  Level Estimated
11:11PM 27.2573 107.0562 319° Northwest  Level Estimated
11:12PM 27.3226 106.9917 319° Northwest  Level Estimated
11:13PM 27.3879 106.9272 319° Northwest  Level Estimated
11:14PM 27.4531 106.8626 319° Northwest  Level Estimated
11:15PM 27.5183 106.7979 319° Northwest  Level Estimated
11:16PM 27.5835 106.7332 319° Northwest  Level Estimated
11:17PM 27.6487 106.6684 319° Northwest  Level Estimated
11:18PM 27.7138 106.6035 319° Northwest  Level Estimated
11:19PM 27.7789 106.5385 319° Northwest  Level Estimated
11:20PM 27.8439 106.4734 319° Northwest  Level Estimated
11:21PM 27.9090 106.4083 318° Northwest  Level Estimated
11:22PM 27.9739 106.3431 318° Northwest  Level Estimated
11:23PM 28.0389 106.2778 318° Northwest  Level Estimated
11:24PM 28.1038 106.2124 318° Northwest  Level Estimated
11:25PM 28.1687 106.1470 318° Northwest  Level Estimated
11:26PM 28.2336 106.0815 318° Northwest  Level Estimated
11:27PM 28.2985 106.0158 318° Northwest  Level Estimated
11:28PM 28.3633 105.9502 318° Northwest  Level Estimated
11:29PM 28.4280 105.8844 318° Northwest  Level Estimated
11:30PM 28.4928 105.8185 318° Northwest  Level Estimated
11:31PM 28.5575 105.7526 318° Northwest  Level Estimated
11:32PM 28.6222 105.6866 318° Northwest  Level Estimated
11:33PM 28.6868 105.6205 318° Northwest  Level Estimated
11:34PM 28.7514 105.5543 318° Northwest  Level Estimated
11:35PM 28.8160 105.4881 318° Northwest  Level Estimated
11:36PM 28.8806 105.4218 318° Northwest  Level Estimated
11:37PM 28.9451 105.3553 318° Northwest  Level Estimated
11:38PM 29.0096 105.2888 318° Northwest  Level Estimated
11:39PM 29.0740 105.2223 318° Northwest  Level Estimated
11:40PM 29.1385 105.1556 318° Northwest  Level Estimated
11:41PM 29.2028 105.0888 318° Northwest  Level Estimated
11:42PM 29.2672 105.0220 318° Northwest  Level Estimated
11:43PM 29.3315 104.9551 318° Northwest  Level Estimated
11:44PM 29.3958 104.8881 318° Northwest  Level Estimated
11:45PM 29.4601 104.8210 318° Northwest  Level Estimated
11:46PM 29.5243 104.7538 318° Northwest  Level Estimated
11:47PM 29.5885 104.6865 318° Northwest  Level Estimated
11:48PM 29.6526 104.6192 318° Northwest  Level Estimated
11:49PM 29.7167 104.5518 318° Northwest  Level Estimated
11:50PM 29.7808 104.4843 318° Northwest  Level Estimated
11:51PM 29.8449 104.4167 318° Northwest  Level Estimated
11:52PM 29.9089 104.3490 318° Northwest  Level Estimated
11:53PM 29.9729 104.2812 317° Northwest  Level Estimated
11:54PM 30.0368 104.2133 317° Northwest  Level Estimated
11:55PM 30.1007 104.1454 317° Northwest  Level Estimated
11:56PM 30.1646 104.0773 317° Northwest  Level Estimated
11:57PM 30.2284 104.0092 317° Northwest  Level Estimated
11:58PM 30.2922 103.9410 317° Northwest  Level Estimated
11:59PM 30.3560 103.8727 317° Northwest  Level Estimated
11:59PM 23.4480 93.5160 317° Northwest 485 558 34,000  Level FlightAware
12:00AM 30.4198 103.8043 317° Northwest  Level Estimated
12:00AM 23.4530 93.4410 274° West 486 559 34,000  Level FlightAware
12:01AM 23.4600 93.3370 274° West 486 559 34,000  Level FlightAware
12:02AM 23.5010 93.2140 290° West 487 560 34,000  Level FlightAware
12:02AM 23.5210 93.1110 282° West 487 560 34,000  Level FlightAware
12:03AM 23.5470 92.9920 283° West 475 547 34,000  Level FlightAware
12:04AM 23.5630 92.9090 282° West 475 547 34,000  Level FlightAware
12:04AM 23.5850 92.8050 283° West 478 550 34,000  Level FlightAware
12:05AM 23.6050 92.7010 282° West 482 555 34,000  Level FlightAware
12:06AM 23.6270 92.5930 283° West 493 567 34,000  Level FlightAware
12:07AM 23.6470 92.4920 282° West 496 571 34,000  Level FlightAware
12:07AM 23.6680 92.3840 282° West 496 571 34,000  Level FlightAware
12:08AM 23.6870 92.2880 282° West 494 568 34,000  Level FlightAware
12:09AM 23.7060 92.1900 282° West 494 568 34,000  Level FlightAware
12:09AM 23.7290 92.0770 283° West 494 568 34,000  Level FlightAware
12:10AM 23.7470 91.9810 282° West 497 572 34,000  Level FlightAware
12:11AM 23.7680 91.8730 282° West 501 577 34,000  Level FlightAware
12:12AM 23.7900 91.7620 282° West 498 573 34,000  Level FlightAware
12:12AM 23.8100 91.6590 282° West 499 574 34,000  Level FlightAware
12:13AM 23.8280 91.5610 281° West 501 577 34,000  Level FlightAware
12:14AM 23.8490 91.4500 282° West 507 583 34,000  Level FlightAware
12:14AM 23.8690 91.3500 282° West 514 592 34,000  Level FlightAware
12:15AM 23.8870 91.2460 281° West 522 601 34,000  Level FlightAware
12:16AM 23.8780 91.1260 265° West 520 598 34,000  Level FlightAware
12:16AM 23.8630 91.0240 261° West 512 589 34,000  Level FlightAware
12:17AM 23.8490 90.9110 262° West 512 589 34,000  Level FlightAware
12:18AM 23.8650 90.8100 280° West 521 600 34,000  Level FlightAware
12:18AM 23.8920 90.7100 286° West 521 600 34,000  Level FlightAware
12:19AM 23.9230 90.5930 286° West 517 595 34,000  Level FlightAware
12:20AM 23.9490 90.4920 286° West 520 598 34,000  Level FlightAware
12:21AM 23.9790 90.3830 287° West 522 601 34,000  Level FlightAware
12:21AM 24.0060 90.2800 286° West 521 600 34,000  Level FlightAware
12:22AM 24.0330 90.1790 286° West 522 601 34,000  Level FlightAware
12:23AM 24.0650 90.0630 287° West 524 603 34,000  Level FlightAware
12:23AM 24.0950 89.9610 288° West 523 602 34,000  Level FlightAware
12:24AM 24.1260 89.8520 287° West 519 597 34,000  Level FlightAware
12:25AM 24.1530 89.7580 287° West 519 597 34,000  Level FlightAware
12:25AM 24.1810 89.6520 286° West 514 592 34,000  Level FlightAware
12:26AM 24.2120 89.5350 286° West 510 587 34,000  Level FlightAware
12:27AM 24.2370 89.4370 286° West 508 585 34,000  Level FlightAware
12:28AM 24.2630 89.3280 285° West 506 582 34,000  Level FlightAware
12:28AM 24.2810 89.2570 286° West 505 581 34,000  Level FlightAware
12:29AM 24.3050 89.1580 285° West 505 581 34,000  Level FlightAware
12:30AM 24.3310 89.0530 285° West 505 581 34,000  Level FlightAware
12:30AM 24.3510 88.9690 285° West 505 581 34,000  Level FlightAware
12:31AM 24.3720 88.8850 285° West 505 581 34,000  Level FlightAware
12:32AM 24.3920 88.8000 285° West 505 581 34,000  Level FlightAware
12:32AM 24.4130 88.7160 285° West 505 581 34,000  Level FlightAware
12:33AM 24.4390 88.6110 285° West 505 581 34,000  Level FlightAware
12:34AM 24.4590 88.5270 285° West 505 581 34,000  Level FlightAware
12:35AM 24.4800 88.4420 285° West 505 581 34,000  Level FlightAware
12:35AM 24.5000 88.3580 285° West 505 581 34,000  Level FlightAware
12:36AM 24.5210 88.2740 285° West 505 581 34,000  Level FlightAware
12:37AM 24.5470 88.1680 285° West 505 581 34,000  Level FlightAware
12:37AM 24.5670 88.0840 285° West 505 581 34,000  Level FlightAware
12:38AM 24.5880 87.9990 285° West 505 581 34,000 -120 Level FlightAware
12:41AM 24.7403 87.8355 316° Northwest  Level Estimated
12:42AM 24.8024 87.7686 316° Northwest  Level Estimated
12:43AM 24.8645 87.7017 316° Northwest  Level Estimated
12:44AM 24.9265 87.6347 316° Northwest  Level Estimated
12:45AM 24.9885 87.5676 316° Northwest  Level Estimated
12:46AM 25.0505 87.5005 316° Northwest  Level Estimated
12:47AM 25.1125 87.4333 316° Northwest  Level Estimated
12:48AM 25.1744 87.3660 315° West  Level Estimated
12:49AM 25.2363 87.2987 315° West  Level Estimated
12:50AM 25.2982 87.2312 315° West  Level Estimated
12:51AM 25.3600 87.1638 315° West  Level Estimated
12:52AM 25.4218 87.0962 315° West  Level Estimated
12:53AM 25.4836 87.0286 315° West  Level Estimated
12:54AM 25.5453 86.9609 315° West  Level Estimated
12:55AM 25.6070 86.8932 315° West  Level Estimated
12:56AM 25.6687 86.8254 315° West  Level Estimated
12:57AM 25.7303 86.7575 315° West  Level Estimated
12:58AM 25.7920 86.6895 315° West  Level Estimated
12:59AM 25.8535 86.6215 315° West  Level Estimated
01:00AM 25.9151 86.5534 315° West  Level Estimated
01:01AM 25.9766 86.4852 315° West  Level Estimated
01:02AM 26.0381 86.4169 315° West  Level Estimated
01:03AM 26.0996 86.3486 315° West  Level Estimated
01:04AM 26.1610 86.2802 315° West  Level Estimated
01:05AM 26.2224 86.2118 315° West  Level Estimated
01:06AM 26.2837 86.1432 315° West  Level Estimated
01:07AM 26.3451 86.0746 315° West  Level Estimated
01:08AM 26.4063 86.0060 315° West  Level Estimated
01:09AM 26.4676 85.9372 315° West  Level Estimated
01:10AM 26.5288 85.8684 315° West  Level Estimated
01:11AM 26.5900 85.7995 315° West  Level Estimated
01:12AM 26.6512 85.7305 315° West  Level Estimated
01:13AM 26.7123 85.6615 315° West  Level Estimated
01:14AM 26.7734 85.5923 315° West  Level Estimated
01:15AM 26.8345 85.5231 315° West  Level Estimated
01:16AM 26.8955 85.4539 315° West  Level Estimated
01:17AM 26.9565 85.3845 315° West  Level Estimated
01:18AM 27.0175 85.3151 315° West  Level Estimated
01:19AM 27.0784 85.2456 315° West  Level Estimated
01:20AM 27.1393 85.1760 315° West  Level Estimated
01:21AM 27.2001 85.1064 315° West  Level Estimated
01:22AM 27.2610 85.0367 314° West  Level Estimated
01:23AM 27.3217 84.9669 314° West  Level Estimated
01:24AM 27.3825 84.8970 314° West  Level Estimated
01:25AM 27.4432 84.8270 314° West  Level Estimated
01:26AM 27.5039 84.7570 314° West  Level Estimated
01:27AM 27.5645 84.6869 314° West  Level Estimated
01:28AM 27.6252 84.6167 314° West  Level Estimated
01:29AM 27.6857 84.5464 314° West  Level Estimated
01:30AM 27.7463 84.4761 314° West  Level Estimated
01:31AM 27.8068 84.4057 314° West  Level Estimated
01:32AM 27.8673 84.3352 314° West  Level Estimated
01:33AM 27.9277 84.2646 314° West  Level Estimated
01:34AM 27.9881 84.1939 314° West  Level Estimated
01:35AM 28.0485 84.1232 314° West  Level Estimated
01:36AM 28.1088 84.0524 314° West  Level Estimated
01:37AM 28.1691 83.9815 314° West  Level Estimated
01:38AM 28.2293 83.9105 314° West  Level Estimated
01:39AM 28.2895 83.8395 314° West  Level Estimated
01:40AM 28.3497 83.7683 314° West  Level Estimated
01:41AM 28.4099 83.6971 314° West  Level Estimated
01:42AM 28.4700 83.6258 314° West  Level Estimated
01:43AM 28.5300 83.5545 314° West  Level Estimated
01:44AM 28.5901 83.4830 314° West  Level Estimated
01:44AM 27.8430 79.2490 314° West 439 505 30,000  Level FlightAware
01:44AM 27.8680 79.1790 292° West 439 505 30,000  Level FlightAware
01:45AM 27.9050 79.0800 293° West 434 499 30,000 -540 Level FlightAware
01:46AM 27.9340 79.0000 292° West 401 461 29,300 -1,560 Descending FlightAware
01:46AM 27.9650 78.9150 292° West 394 453 27,800 -1,800 Descending FlightAware
01:47AM 27.9960 78.8280 292° West 379 436 26,600 -1,320 Descending FlightAware
01:48AM 28.0210 78.7590 292° West 354 407 26,000 -480 Descending FlightAware
01:49AM 28.0560 78.7000 304° West 335 386 26,000  Level FlightAware
01:49AM 28.1120 78.6530 323° Northwest 334 384 26,000  Level FlightAware
01:50AM 28.1620 78.6120 324° Northwest 335 386 26,000  Level FlightAware
01:51AM 28.2200 78.5640 324° Northwest 336 387 26,000  Level FlightAware
01:51AM 28.2690 78.5250 325° Northwest 338 389 26,000  Level FlightAware
01:52AM 28.3210 78.4820 324° Northwest 334 384 26,000 -540 Level FlightAware
01:53AM 28.3710 78.4420 325° Northwest 338 389 25,300 -1,380 Descending FlightAware
01:53AM 28.4270 78.3960 324° Northwest 332 382 24,100 -1,800 Descending FlightAware
01:54AM 28.4850 78.3470 323° Northwest 329 379 22,600 -1,500 Descending FlightAware
01:55AM 28.5320 78.3080 324° Northwest 328 377 22,000 -540 Descending FlightAware
01:55AM 28.5650 78.2720 316° Northwest 318 366 22,000 -780 Level FlightAware
01:56AM 28.5760 78.2350 289° West 314 361 21,300 -1,800 Descending FlightAware
01:56AM 28.5690 78.1870 261° West 321 369 20,400 -1,680 Descending FlightAware
01:57AM 28.5460 78.1230 248° West 310 357 19,400 -1,380 Descending FlightAware
01:58AM 28.5240 78.0650 247° West 290 334 18,600 -1,380 Descending FlightAware
01:58AM 28.5020 78.0030 248° West 281 323 17,500 -1,500 Descending FlightAware
01:59AM 28.4820 77.9490 247° West 274 315 16,500 -1,320 Descending FlightAware
02:00AM 28.4600 77.8890 247° West 266 306 15,700 -1,380 Descending FlightAware
02:00AM 28.4410 77.8380 247° West 267 307 14,600 -1,500 Descending FlightAware
02:01AM 28.4230 77.7870 248° West 259 298 13,700 -1,140 Descending FlightAware
02:02AM 28.4020 77.7320 247° West 258 297 13,000 -720 Descending FlightAware
02:02AM 28.3970 77.7110 255° West 253 291 13,000  Level FlightAware
02:03AM 28.4030 77.6810 283° West 255 293 13,000  Level FlightAware
02:03AM 28.4330 77.6300 304° West 258 297 13,000  Level FlightAware
02:04AM 28.4480 77.6220 335° Northwest 266 306 13,000 -240 Level FlightAware
02:04AM 28.4970 77.6340 12° North 299 344 12,800 -600 Descending FlightAware
02:04AM 28.5100 77.6550 55° Northeast 305 351 12,500 -840 Descending FlightAware
02:05AM 28.5150 77.6770 75° East 309 356 12,400 -720 Descending FlightAware
02:05AM 28.5140 77.6920 94° East 310 357 12,200 -960 Descending FlightAware
02:05AM 28.5040 77.7170 114° Southeast 311 358 12,000 -840 Descending FlightAware
02:06AM 28.4740 77.7780 119° Southeast 310 357 11,400 -780 Descending FlightAware
02:06AM 28.4450 77.8050 141° Southeast 294 338 11,100 -600 Descending FlightAware
02:07AM 28.4260 77.8090 170° South 283 326 11,000 -180 Descending FlightAware
02:07AM 28.3930 77.7940 202° Southwest 263 303 11,000 -120 Level FlightAware
02:07AM 28.3770 77.7650 238° Southwest 248 285 10,900 -300 Descending FlightAware
02:08AM 28.3750 77.7490 262° West 245 282 10,800 -720 Descending FlightAware
02:08AM 28.3660 77.7100 255° West 255 293 10,400 -720 Descending FlightAware
02:08AM 28.3520 77.6970 219° Southwest 259 298 10,300 -480 Descending FlightAware
02:09AM 28.3120 77.6670 213° Southwest 256 295 10,000 -900 Descending FlightAware
02:10AM 28.2840 77.6440 216° Southwest 252 290 9,300 -1,500 Descending FlightAware
02:10AM 28.2750 77.6340 224° Southwest 244 281 9,000 -1,440 Descending FlightAware
02:10AM 28.2690 77.6180 247° West 234 269 8,700 -1,440 Descending FlightAware
02:10AM 28.2720 77.6000 281° West 231 266 8,300 -1,440 Descending FlightAware
02:10AM 28.2790 77.5900 308° West 236 272 8,100 -600 Descending FlightAware
02:11AM 28.3000 77.5810 339° North 254 292 8,000 -180 Descending FlightAware
02:11AM 28.3280 77.5840 North 258 297 8,000  Level FlightAware
02:12AM 28.3700 77.5680 341° North 239 275 8,000  Level FlightAware
02:12AM 28.3940 77.5480 324° Northwest 209 241 8,000 -240 Level FlightAware
02:13AM 28.4170 77.5310 327° Northwest 182 209 7,800 -900 Descending FlightAware
02:13AM 28.4360 77.5160 325° Northwest 180 207 7,200 -1,680 Descending FlightAware
02:14AM 28.4530 77.4960 314° West 188 216 6,300 -1,740 Descending FlightAware
02:14AM 28.4580 77.4830 294° West 199 229 5,900 -1,620 Descending FlightAware
02:14AM 28.4610 77.4670 282° West 200 230 5,500 -1,200 Descending FlightAware
02:15AM 28.4660 77.4420 283° West 195 224 5,100 -780 Descending FlightAware
02:15AM 28.4720 77.4130 283° West 190 219 4,800 -660 Descending FlightAware
02:16AM 28.4780 77.3870 285° West 191 220 4,500 -660 Descending FlightAware
02:16AM 28.4840 77.3590 284° West 177 204 4,200 -720 Descending FlightAware
02:16AM 28.4870 77.3460 285° West 175 201 4,000 -600 Descending FlightAware
02:17AM 28.4920 77.3240 285° West 173 199 3,800 -480 Descending FlightAware
02:17AM 28.4940 77.3100 279° West 176 203 3,700 -300 Descending FlightAware
02:18AM 28.5000 77.2840 285° West 170 196 3,600 -240 Descending FlightAware
02:18AM 28.5050 77.2620 285° West 171 197 3,500 -300 Descending FlightAware
02:18AM 28.5080 77.2490 285° West 172 198 3,400 -420 Descending FlightAware
02:19AM 28.5130 77.2220 282° West 171 197 3,200 -600 Descending FlightAware
02:19AM 28.5180 77.2000 285° West 167 192 2,900 -780 Descending FlightAware
02:20AM 28.5240 77.1750 285° West 168 193 2,500 -900 Descending FlightAware
02:20AM 28.5280 77.1540 282° West 161 185 2,100 -900 Descending FlightAware
02:21AM 28.5330 77.1300 283° West 156 180 1,700 -660 Descending FlightAware
02:21AM 28.5360 77.1170 285° West 161 185 1,500 -600 Descending FlightAware
02:21AM 28.5410 77.0950 285° West 158 182 1,200  Descending FlightAware
02:34AM 28.6728 76.9522 313° West  Level Estimated
02:38AM 28.6867 76.9501 313° West  Level Estimated
02:39AM 28.7460 76.8778 313° West  Level Estimated
02:40AM 28.8053 76.8054 313° West  Level Estimated
02:41AM 28.8645 76.7329 313° West  Level Estimated
02:42AM 28.9237 76.6603 313° West  Level Estimated
02:43AM 28.9828 76.5876 313° West  Level Estimated
02:44AM 29.0420 76.5149 313° West  Level Estimated
02:45AM 29.1010 76.4420 313° West  Level Estimated
02:46AM 29.1601 76.3691 313° West  Level Estimated
02:47AM 29.2191 76.2961 313° West  Level Estimated
02:48AM 29.2780 76.2230 313° West  Level Estimated
02:49AM 29.3370 76.1498 313° West  Level Estimated
02:50AM 29.3958 76.0766 313° West  Level Estimated
02:51AM 29.4547 76.0033 313° West  Level Estimated
02:52AM 29.5135 75.9298 313° West  Level Estimated
02:53AM 29.5722 75.8563 313° West  Level Estimated
02:54AM 29.6310 75.7827 313° West  Level Estimated
02:55AM 29.6896 75.7090 313° West  Level Estimated
02:56AM 29.7483 75.6353 312° West  Level Estimated
02:57AM 29.8069 75.5614 312° West  Level Estimated
02:58AM 29.8654 75.4875 312° West  Level Estimated
02:59AM 29.9240 75.4134 312° West  Level Estimated
03:00AM 29.9824 75.3393 312° West  Level Estimated
03:01AM 30.0408 75.2651 312° West  Level Estimated
03:02AM 30.0992 75.1908 312° West  Level Estimated
03:03AM 30.1576 75.1164 312° West  Level Estimated
03:04AM 30.2159 75.0420 312° West  Level Estimated
03:05AM 30.2742 74.9674 312° West  Level Estimated
03:06AM 30.3324 74.8928 312° West  Level Estimated
03:07AM 30.3906 74.8180 312° West  Level Estimated
03:08AM 30.4487 74.7432 312° West  Level Estimated
03:09AM 30.5068 74.6683 312° West  Level Estimated
03:10AM 30.5648 74.5933 312° West  Level Estimated
03:11AM 30.6229 74.5182 312° West  Level Estimated
03:12AM 30.6808 74.4430 312° West  Level Estimated
03:13AM 30.7387 74.3678 312° West  Level Estimated
03:14AM 30.7966 74.2924 312° West  Level Estimated
03:15AM 30.8544 74.2170 312° West  Level Estimated
03:16AM 30.9122 74.1414 312° West  Level Estimated
03:17AM 30.9700 74.0658 312° West  Level Estimated
03:18AM 31.0277 73.9901 312° West  Level Estimated
03:19AM 31.0853 73.9142 312° West  Level Estimated
03:20AM 31.1430 73.8383 312° West  Level Estimated
03:21AM 31.2005 73.7623 312° West  Level Estimated
03:22AM 31.2580 73.6862 311° West  Level Estimated
03:23AM 31.3155 73.6100 311° West  Level Estimated
03:24AM 31.3729 73.5338 311° West  Level Estimated
03:25AM 31.4303 73.4574 311° West  Level Estimated
03:26AM 31.4877 73.3809 311° West  Level Estimated
03:27AM 31.5450 73.3044 311° West  Level Estimated
03:28AM 31.6022 73.2277 311° West  Level Estimated
03:29AM 31.6594 73.1509 311° West  Level Estimated
03:30AM 31.7166 73.0741 311° West  Level Estimated
03:31AM 31.7737 72.9972 311° West  Level Estimated
03:32AM 31.8308 72.9201 311° West  Level Estimated
03:33AM 31.8878 72.8430 311° West  Level Estimated
03:34AM 31.9448 72.7658 311° West  Level Estimated
03:35AM 32.0017 72.6885 311° West  Level Estimated
03:36AM 32.0586 72.6110 311° West  Level Estimated
03:37AM 32.1154 72.5335 311° West  Level Estimated
03:38AM 32.1722 72.4559 311° West  Level Estimated
03:39AM 32.2290 72.3782 311° West  Level Estimated
03:40AM 32.2856 72.3004 311° West  Level Estimated
03:41AM 32.3423 72.2225 311° West  Level Estimated
03:42AM 32.3989 72.1445 311° West  Level Estimated
03:43AM 32.4554 72.0664 311° West  Level Estimated
03:44AM 32.5119 71.9882 311° West  Level Estimated
03:45AM 32.5684 71.9099 311° West  Level Estimated
03:46AM 32.6248 71.8315 311° West  Level Estimated
03:47AM 32.6811 71.7530 310° West  Level Estimated
03:48AM 32.7374 71.6745 310° West  Level Estimated
03:49AM 32.7937 71.5958 310° West  Level Estimated
03:50AM 32.8499 71.5170 310° West  Level Estimated
03:51AM 32.9061 71.4381 310° West  Level Estimated
03:52AM 32.9622 71.3591 310° West  Level Estimated
03:53AM 33.0182 71.2800 310° West  Level Estimated
03:54AM 33.0742 71.2008 310° West  Level Estimated
03:55AM 33.1302 71.1215 310° West  Level Estimated
03:56AM 33.1861 71.0421 310° West  Level Estimated
03:57AM 33.2420 70.9626 310° West  Level Estimated
03:58AM 33.2978 70.8830 310° West  Level Estimated
03:59AM 33.3535 70.8034 310° West  Level Estimated
04:00AM 33.4092 70.7235 310° West  Level Estimated
04:01AM 33.4649 70.6436 310° West  Level Estimated
04:02AM 33.5205 70.5637 310° West  Level Estimated
04:03AM 33.5760 70.4835 310° West  Level Estimated
04:04AM 33.6315 70.4033 310° West  Level Estimated
04:05AM 33.6870 70.3230 310° West  Level Estimated
04:06AM 33.7424 70.2426 310° West  Level Estimated
04:07AM 33.7977 70.1621 310° West  Level Estimated
04:08AM 33.8530 70.0815 310° West  Level Estimated
04:09AM 33.9083 70.0007 310° West  Level Estimated
04:10AM 33.9635 69.9199 309° West  Level Estimated
04:11AM 34.0186 69.8390 309° West  Level Estimated
04:12AM 34.0737 69.7579 309° West  Level Estimated
04:13AM 34.1287 69.6768 309° West  Level Estimated
04:14AM 34.1837 69.5955 309° West  Level Estimated
04:15AM 34.2386 69.5142 309° West  Level Estimated
04:16AM 34.2935 69.4327 309° West  Level Estimated
04:17AM 34.3483 69.3511 309° West  Level Estimated
04:18AM 34.4030 69.2694 309° West  Level Estimated
04:19AM 34.4577 69.1877 309° West  Level Estimated
04:20AM 34.5124 69.1058 309° West  Level Estimated
04:21AM 34.5670 69.0238 309° West  Level Estimated
04:22AM 34.6215 68.9417 309° West  Level Estimated
04:23AM 34.6760 68.8594 309° West  Level Estimated
04:24AM 34.7304 68.7771 309° West  Level Estimated
04:25AM 34.7848 68.6947 309° West  Level Estimated
04:26AM 34.8391 68.6121 309° West  Level Estimated
04:27AM 34.8934 68.5295 309° West  Level Estimated
04:28AM 34.9476 68.4467 309° West  Level Estimated
04:29AM 35.0017 68.3639 309° West  Level Estimated
04:30AM 35.0558 68.2809 309° West  Level Estimated
04:31AM 35.1099 68.1978 308° West  Level Estimated
04:32AM 35.1638 68.1146 308° West  Level Estimated
04:33AM 35.2178 68.0313 308° West  Level Estimated
04:34AM 35.2716 67.9479 308° West  Level Estimated
04:35AM 35.3254 67.8643 308° West  Level Estimated
04:36AM 35.3792 67.7807 308° West  Level Estimated
04:37AM 35.4329 67.6969 308° West  Level Estimated
04:38AM 35.4865 67.6131 308° West  Level Estimated
04:39AM 35.5401 67.5291 308° West  Level Estimated
04:40AM 35.5936 67.4450 308° West  Level Estimated
04:41AM 35.6471 67.3608 308° West  Level Estimated
04:42AM 35.7005 67.2765 308° West  Level Estimated
04:43AM 35.7538 67.1921 308° West  Level Estimated
04:44AM 35.8071 67.1075 308° West  Level Estimated
04:45AM 35.8603 67.0229 308° West  Level Estimated
04:46AM 35.9135 66.9381 308° West  Level Estimated
04:52AM 28.6639 76.9911 313° West  Level Estimated
04:54AM 28.5670 77.0860 284° West 185 213 1,500  Level FlightAware
04:54AM 28.5730 77.0630 287° West 184 212 2,300 1,500 Climbing FlightAware
04:54AM 28.5760 77.0470 282° West 190 219 2,500 600 Climbing FlightAware
04:55AM 28.5840 77.0110 284° West 223 257 2,800 960 Climbing FlightAware
04:56AM 28.5960 76.9600 285° West 260 299 3,600 1,500 Climbing FlightAware
04:56AM 28.6040 76.9260 285° West 277 319 4,200 1,620 Climbing FlightAware
04:56AM 28.6090 76.9020 283° West 287 330 4,700 1,980 Climbing FlightAware
04:57AM 28.6120 76.8600 275° West 296 341 5,700 2,280 Climbing FlightAware
04:57AM 28.6140 76.8190 273° West 297 342 6,800 2,460 Climbing FlightAware
04:58AM 28.6160 76.7730 273° West 299 344 8,000 2,760 Climbing FlightAware
04:58AM 28.6180 76.7470 275° West 301 346 8,900 3,000 Climbing FlightAware
04:58AM 28.6200 76.7100 274° West 299 344 10,000 1,800 Climbing FlightAware
04:59AM 28.6260 76.6610 278° West 311 358 10,900 840 Climbing FlightAware
05:00AM 28.6400 76.5770 281° West 336 387 11,400 300 Climbing FlightAware
05:01AM 28.6490 76.5180 280° West 336 387 11,400 2,520 Level FlightAware
05:01AM 28.6650 76.4230 281° West 386 444 14,600 2,400 Climbing FlightAware
05:02AM 28.6780 76.3390 280° West 386 444 14,600 1,920 Level FlightAware
05:03AM 28.6840 76.1940 273° West 423 487 18,000 2,820 Climbing FlightAware
05:04AM 28.6800 76.0700 268° West 437 503 19,600 1,980 Climbing FlightAware
05:04AM 28.6760 75.9820 267° West 445 512 20,700 1,620 Climbing FlightAware
05:05AM 28.6700 75.8600 267° West 458 527 21,900 1,440 Climbing FlightAware
05:06AM 28.6650 75.7620 267° West 464 534 22,900 1,440 Climbing FlightAware
05:07AM 28.6600 75.6580 267° West 468 539 24,000 1,320 Climbing FlightAware
05:07AM 28.6540 75.5560 266° West 474 545 24,800 1,200 Climbing FlightAware
05:08AM 28.6490 75.4560 267° West 481 554 25,600 1,380 Climbing FlightAware
05:09AM 28.6430 75.3400 267° West 478 550 26,800 1,620 Climbing FlightAware
05:09AM 28.6380 75.2400 267° West 471 542 27,900 1,620 Climbing FlightAware
05:10AM 28.6320 75.1310 266° West 465 535 29,100 1,260 Climbing FlightAware
05:11AM 28.6270 75.0350 267° West 466 536 29,700 840 Climbing FlightAware
05:11AM 28.6220 74.9520 266° West 467 537 30,200 360 Climbing FlightAware
05:12AM 28.6160 74.8520 266° West 467 537 30,200 1,020 Level FlightAware
05:13AM 28.6100 74.7300 267° West 459 528 31,800 1,260 Climbing FlightAware
05:13AM 28.6040 74.6410 266° West 459 528 32,000 120 Climbing FlightAware
05:14AM 28.5990 74.5590 266° West 459 528 32,000  Level FlightAware
05:15AM 28.5940 74.4770 266° West 459 528 32,000  Level FlightAware
05:16AM 28.5880 74.3750 266° West 459 528 32,000  Level FlightAware
05:16AM 28.5830 74.2930 266° West 459 528 32,000  Level FlightAware
05:17AM 28.5780 74.2110 266° West 459 528 32,000  Level FlightAware
05:18AM 28.5730 74.1290 266° West 459 528 32,000  Level FlightAware
05:18AM 28.5680 74.0470 266° West 459 528 32,000  Level FlightAware
05:19AM 28.5620 73.9440 266° West 459 528 32,000  Level FlightAware
05:20AM 28.5570 73.8620 266° West 459 528 32,000  Level FlightAware
05:20AM 28.5520 73.7800 266° West 459 528 32,000  Level FlightAware
05:21AM 28.5410 73.5130 267° West 460 529 32,000  Level FlightAware
05:22AM 28.5370 73.4150 267° West 460 529 32,000  Level FlightAware
05:23AM 28.5320 73.3020 267° West 460 529 32,000  Level FlightAware
05:24AM 28.5260 73.1750 267° West 461 531 32,000  Level FlightAware
05:25AM 28.5190 73.0190 267° West 461 531 32,000  Level FlightAware
05:25AM 28.5150 72.9280 267° West 462 532 32,000  Level FlightAware
05:26AM 28.5100 72.8250 267° West 462 532 32,000  Level FlightAware
05:27AM 28.5060 72.7420 267° West 462 532 32,000  Level FlightAware
05:28AM 28.4970 72.5740 267° West 466 536 32,000  Level FlightAware
05:28AM 28.4920 72.4910 266° West 466 536 32,000  Level FlightAware
05:29AM 28.4860 72.4080 265° West 466 536 32,000  Level FlightAware
05:30AM 28.4880 72.2800 271° West 466 536 32,000  Level FlightAware
05:30AM 28.5060 72.1820 282° West 466 536 32,000  Level FlightAware
05:31AM 28.5210 72.1010 282° West 466 536 32,000  Level FlightAware
05:32AM 28.5400 71.9990 282° West 466 536 32,000  Level FlightAware
05:33AM 28.5560 71.9170 283° West 466 536 32,000  Level FlightAware
05:33AM 28.5710 71.8360 282° West 466 536 32,000  Level FlightAware
05:34AM 28.5860 71.7540 282° West 466 536 32,000  Level FlightAware
05:35AM 28.6010 71.6720 282° West 466 536 32,000  Level FlightAware
05:35AM 28.6200 71.5700 282° West 466 536 32,000  Level FlightAware
05:36AM 28.6360 71.4880 283° West 466 536 32,000  Level FlightAware
05:37AM 28.6510 71.4070 282° West 466 536 32,000  Level FlightAware
05:37AM 28.6660 71.3250 282° West 466 536 32,000  Level FlightAware
05:38AM 28.6810 71.2430 282° West 466 536 32,000  Level FlightAware
05:39AM 28.7000 71.1410 282° West 466 536 32,000  Level FlightAware
05:40AM 28.7160 71.0590 283° West 466 536 32,000  Level FlightAware
05:42AM 28.8273 70.9222 313° West  Level Estimated
05:43AM 28.8863 70.8495 313° West  Level Estimated
05:44AM 28.9453 70.7767 313° West  Level Estimated
05:45AM 29.0042 70.7038 313° West  Level Estimated
05:46AM 29.0632 70.6308 313° West  Level Estimated
05:47AM 29.1220 70.5577 313° West  Level Estimated
05:48AM 29.1809 70.4846 313° West  Level Estimated
05:49AM 29.2397 70.4113 313° West  Level Estimated
05:50AM 29.2984 70.3380 313° West  Level Estimated
05:51AM 29.3571 70.2646 313° West  Level Estimated
05:52AM 29.4158 70.1911 313° West  Level Estimated
05:53AM 29.4744 70.1175 312° West  Level Estimated
05:54AM 29.5330 70.0439 312° West  Level Estimated
05:55AM 29.5916 69.9701 312° West  Level Estimated
05:56AM 29.6501 69.8963 312° West  Level Estimated
05:57AM 29.7085 69.8224 312° West  Level Estimated
05:58AM 29.7670 69.7484 312° West  Level Estimated
05:59AM 29.8253 69.6743 312° West  Level Estimated
06:00AM 29.8837 69.6001 312° West  Level Estimated
06:01AM 29.9420 69.5258 312° West  Level Estimated
06:02AM 30.0003 69.4515 312° West  Level Estimated
06:03AM 30.0585 69.3770 312° West  Level Estimated
06:04AM 30.1167 69.3025 312° West  Level Estimated
06:05AM 30.1748 69.2279 312° West  Level Estimated
06:06AM 30.2329 69.1532 312° West  Level Estimated
06:07AM 30.2909 69.0784 312° West  Level Estimated
06:08AM 30.3489 69.0035 312° West  Level Estimated
06:09AM 30.4069 68.9286 312° West  Level Estimated
06:10AM 30.4648 68.8535 312° West  Level Estimated
06:11AM 30.5227 68.7784 312° West  Level Estimated
06:12AM 30.5806 68.7031 312° West  Level Estimated
06:13AM 30.6383 68.6278 312° West  Level Estimated
06:14AM 30.6961 68.5524 312° West  Level Estimated
06:15AM 30.7538 68.4769 312° West  Level Estimated
06:16AM 30.8115 68.4013 312° West  Level Estimated
06:17AM 30.8691 68.3256 312° West  Level Estimated
06:18AM 30.9267 68.2498 312° West  Level Estimated
06:19AM 30.9842 68.1739 312° West  Level Estimated
06:20AM 31.0417 68.0980 311° West  Level Estimated
06:21AM 31.0991 68.0219 311° West  Level Estimated
06:22AM 31.1565 67.9458 311° West  Level Estimated
06:23AM 31.2139 67.8695 311° West  Level Estimated
06:24AM 31.2712 67.7932 311° West  Level Estimated
06:25AM 31.3284 67.7168 311° West  Level Estimated
06:26AM 31.3857 67.6403 311° West  Level Estimated
06:27AM 31.4428 67.5637 311° West  Level Estimated
06:28AM 31.5000 67.4870 311° West  Level Estimated
06:29AM 31.5571 67.4102 311° West  Level Estimated
06:30AM 31.6141 67.3333 311° West  Level Estimated
06:31AM 31.6711 67.2563 311° West  Level Estimated
06:32AM 31.7280 67.1792 311° West  Level Estimated
06:33AM 31.7849 67.1021 311° West  Level Estimated
06:34AM 31.8418 67.0248 311° West  Level Estimated
06:35AM 31.8986 66.9474 311° West  Level Estimated
06:36AM 31.9553 66.8700 311° West  Level Estimated
06:37AM 32.0120 66.7924 311° West  Level Estimated
06:38AM 32.0687 66.7148 311° West  Level Estimated
06:39AM 32.1253 66.6370 311° West  Level Estimated
06:40AM 32.1819 66.5592 311° West  Level Estimated
06:41AM 32.2384 66.4812 311° West  Level Estimated
06:42AM 32.2949 66.4032 311° West  Level Estimated
06:43AM 32.3513 66.3251 311° West  Level Estimated
06:44AM 32.4076 66.2468 310° West  Level Estimated
06:45AM 32.4640 66.1685 310° West  Level Estimated
06:46AM 32.5203 66.0901 310° West  Level Estimated
06:47AM 32.5765 66.0115 310° West  Level Estimated
06:48AM 32.6327 65.9329 310° West  Level Estimated
06:49AM 32.6888 65.8542 310° West  Level Estimated
06:50AM 32.7449 65.7754 310° West  Level Estimated
06:51AM 32.8009 65.6965 310° West  Level Estimated
06:52AM 32.8569 65.6174 310° West  Level Estimated
06:53AM 32.9128 65.5383 310° West  Level Estimated
06:54AM 32.9687 65.4591 310° West  Level Estimated
06:55AM 33.0245 65.3798 310° West  Level Estimated
06:56AM 33.0803 65.3004 310° West  Level Estimated
06:57AM 33.1360 65.2208 310° West  Level Estimated
06:58AM 33.1917 65.1412 310° West  Level Estimated
06:59AM 33.2473 65.0615 310° West  Level Estimated
07:00AM 33.3029 64.9817 310° West  Level Estimated
07:01AM 33.3585 64.9017 310° West  Level Estimated
07:02AM 33.4139 64.8217 310° West  Level Estimated
07:03AM 33.4694 64.7416 310° West  Level Estimated
07:04AM 33.5247 64.6613 310° West  Level Estimated
07:05AM 33.5801 64.5810 310° West  Level Estimated
07:06AM 33.6353 64.5006 310° West  Level Estimated
07:07AM 33.6906 64.4200 310° West  Level Estimated
07:08AM 33.7457 64.3394 309° West  Level Estimated
07:09AM 33.8008 64.2586 309° West  Level Estimated
07:10AM 33.8559 64.1778 309° West  Level Estimated
07:11AM 33.9109 64.0968 309° West  Level Estimated
07:12AM 33.9659 64.0158 309° West  Level Estimated
07:13AM 34.0207 63.9346 309° West  Level Estimated
07:14AM 34.0756 63.8533 309° West  Level Estimated
07:15AM 34.1304 63.7719 309° West  Level Estimated
07:16AM 34.1851 63.6905 309° West  Level Estimated
07:17AM 34.2398 63.6089 309° West  Level Estimated
07:18AM 34.2944 63.5272 309° West  Level Estimated
07:19AM 34.3490 63.4454 309° West  Level Estimated
07:20AM 34.4035 63.3635 309° West  Level Estimated
07:21AM 34.4580 63.2814 309° West  Level Estimated
07:22AM 34.5124 63.1993 309° West  Level Estimated
07:23AM 34.5668 63.1171 309° West  Level Estimated
07:24AM 34.6211 63.0348 309° West  Level Estimated
07:25AM 34.6753 62.9523 309° West  Level Estimated
07:26AM 34.7295 62.8698 309° West  Level Estimated
07:27AM 34.7837 62.7871 309° West  Level Estimated
07:28AM 34.8377 62.7043 309° West  Level Estimated
07:29AM 34.8918 62.6215 308° West  Level Estimated
07:30AM 34.9458 62.5385 308° West  Level Estimated
07:31AM 34.9997 62.4554 308° West  Level Estimated
07:32AM 35.0535 62.3722 308° West  Level Estimated
07:33AM 35.1073 62.2888 308° West  Level Estimated
07:34AM 35.1611 62.2054 308° West  Level Estimated
07:35AM 35.2147 62.1219 308° West  Level Estimated
07:36AM 35.2684 62.0382 308° West  Level Estimated
07:37AM 35.3219 61.9545 308° West  Level Estimated
07:38AM 35.3755 61.8706 308° West  Level Estimated
07:39AM 35.4289 61.7866 308° West  Level Estimated
07:40AM 35.4823 61.7025 308° West  Level Estimated
07:41AM 35.5356 61.6183 308° West  Level Estimated
07:42AM 35.5889 61.5340 308° West  Level Estimated
07:43AM 35.6421 61.4496 308° West  Level Estimated
07:44AM 35.6953 61.3650 308° West  Level Estimated
07:45AM 35.7484 61.2804 308° West  Level Estimated
07:46AM 35.8014 61.1956 308° West  Level Estimated
07:47AM 35.8544 61.1107 308° West  Level Estimated
07:48AM 35.9073 61.0258 308° West  Level Estimated
07:49AM 35.9602 60.9407 308° West  Level Estimated
07:50AM 36.0130 60.8554 307° West  Level Estimated
07:51AM 36.0657 60.7701 307° West  Level Estimated
07:52AM 36.1184 60.6847 307° West  Level Estimated
07:53AM 36.1710 60.5991 307° West  Level Estimated
07:54AM 36.2236 60.5134 307° West  Level Estimated
07:55AM 36.2761 60.4276 307° West  Level Estimated
07:56AM 36.3285 60.3417 307° West  Level Estimated
07:57AM 36.3809 60.2557 307° West  Level Estimated
07:58AM 36.4332 60.1696 307° West  Level Estimated
07:59AM 36.4855 60.0833 307° West  Level Estimated
08:00AM 36.5377 59.9969 307° West  Level Estimated
08:01AM 36.5898 59.9104 307° West  Level Estimated
08:02AM 36.6419 59.8238 307° West  Level Estimated
08:03AM 36.6939 59.7371 307° West  Level Estimated
08:04AM 36.7458 59.6503 307° West  Level Estimated
08:05AM 36.7977 59.5633 307° West  Level Estimated
08:06AM 36.8495 59.4762 307° West  Level Estimated
08:07AM 36.9012 59.3890 307° West  Level Estimated
08:08AM 36.9529 59.3017 307° West  Level Estimated
08:09AM 37.0046 59.2143 306° West  Level Estimated
08:10AM 37.0561 59.1267 306° West  Level Estimated
08:11AM 37.1076 59.0391 306° West  Level Estimated
08:12AM 37.1590 58.9513 306° West  Level Estimated
08:13AM 37.2104 58.8634 306° West  Level Estimated
08:14AM 37.2617 58.7753 306° West  Level Estimated
08:15AM 37.3129 58.6872 306° West  Level Estimated
08:16AM 37.3641 58.5989 306° West  Level Estimated
08:17AM 37.4152 58.5105 306° West  Level Estimated
08:18AM 37.4662 58.4220 306° West  Level Estimated
08:19AM 37.5172 58.3334 306° West  Level Estimated
08:20AM 37.5681 58.2446 306° West  Level Estimated
08:21AM 37.6189 58.1558 306° West  Level Estimated
08:22AM 37.6697 58.0668 306° West  Level Estimated
08:23AM 37.7204 57.9777 306° West  Level Estimated
08:24AM 37.7711 57.8884 306° West  Level Estimated
08:25AM 37.8216 57.7991 306° West  Level Estimated
08:26AM 37.8721 57.7096 306° West  Level Estimated
08:27AM 37.9226 57.6200 306° West  Level Estimated
08:28AM 37.9729 57.5303 305° West  Level Estimated
08:29AM 38.0232 57.4404 305° West  Level Estimated
08:30AM 38.0735 57.3504 305° West  Level Estimated
08:31AM 38.1236 57.2603 305° West  Level Estimated
08:32AM 38.1737 57.1701 305° West  Level Estimated
08:32AM 43.7770 51.0320 305° West 482 555 32,000  Level FlightAware
08:32AM 43.8390 50.9360 312° West 482 555 32,000  Level FlightAware
08:33AM 43.9060 50.8330 312° West 484 557 32,000  Level FlightAware
08:34AM 43.9630 50.7430 311° West 486 559 32,000  Level FlightAware
08:34AM 44.0250 50.6460 312° West 486 559 32,000  Level FlightAware
08:35AM 44.0920 50.5410 312° West 486 559 32,000  Level FlightAware
08:36AM 44.1490 50.4500 311° West 484 557 32,000  Level FlightAware
08:36AM 44.2070 50.3580 311° West 485 558 32,000  Level FlightAware
08:37AM 44.2770 50.2470 311° West 486 559 32,000  Level FlightAware
08:38AM 44.3430 50.1420 311° West 486 559 32,000  Level FlightAware
08:39AM 44.4020 50.0480 311° West 486 559 32,000  Level FlightAware
08:39AM 44.4620 49.9510 311° West 486 559 32,000  Level FlightAware
08:40AM 44.5270 49.8460 311° West 485 558 32,000  Level FlightAware
08:41AM 44.5860 49.7510 311° West 483 556 32,000  Level FlightAware
08:41AM 44.6430 49.6580 311° West 482 555 32,000  Level FlightAware
08:42AM 44.7080 49.5520 311° West 481 554 32,000  Level FlightAware
08:43AM 44.7650 49.4510 309° West 480 552 32,000  Level FlightAware
08:44AM 44.8230 49.3360 305° West 480 552 32,000  Level FlightAware
08:44AM 44.8720 49.2320 304° West 483 556 32,000  Level FlightAware
08:45AM 44.9190 49.1270 302° West 482 555 32,000  Level FlightAware
08:46AM 44.9630 49.0270 302° West 479 551 32,000  Level FlightAware
08:46AM 45.0190 48.8990 302° West 477 549 32,000  Level FlightAware
08:47AM 45.0700 48.7800 301° West 475 547 32,000  Level FlightAware
08:48AM 45.1150 48.6760 302° West 474 545 32,000  Level FlightAware
08:48AM 45.1620 48.5690 302° West 474 545 32,000  Level FlightAware
08:49AM 45.2130 48.4490 301° West 474 545 32,000  Level FlightAware
08:50AM 45.2580 48.3450 302° West 473 544 32,000  Level FlightAware
08:50AM 45.2990 48.2480 301° West 472 543 32,000  Level FlightAware
08:51AM 45.3490 48.1320 302° West 472 543 32,000  Level FlightAware
08:52AM 45.3910 48.0330 301° West 473 544 32,000  Level FlightAware
08:53AM 45.4460 47.9040 301° West 475 547 32,000  Level FlightAware
08:53AM 45.4820 47.8170 301° West 475 547 32,000  Level FlightAware
08:54AM 45.5440 47.6700 301° West 475 547 32,000  Level FlightAware
08:55AM 45.5440 47.6700 301° West 476 548 32,000  Level FlightAware
08:55AM 45.6300 47.4610 301° West 476 548 32,000 120 Level FlightAware
08:56AM 45.6860 47.3290 301° West 478 550 32,200 720 Climbing FlightAware
08:57AM 45.7320 47.2180 301° West 481 554 33,100 1,260 Climbing FlightAware
08:58AM 45.7820 47.0950 300° West 482 555 34,000 600 Climbing FlightAware
08:58AM 45.8280 46.9830 301° West 481 554 34,000  Level FlightAware
08:59AM 45.8710 46.8780 300° West 482 555 34,000  Level FlightAware
08:59AM 45.9110 46.7790 300° West 482 555 34,000  Level FlightAware
09:01AM 46.0170 46.5160 300° West 482 555 34,000  Level FlightAware
09:02AM 46.0420 46.4530 300° West 34,000  Level FlightAware
09:03AM 46.1580 46.1620 300° West 482 555 34,000  Level FlightAware
09:04AM 46.2130 46.0220 300° West 483 556 34,000  Level FlightAware
09:05AM 46.2710 45.8740 300° West 483 556 34,000  Level FlightAware
09:06AM 46.3170 45.7530 299° West 483 556 34,000  Level FlightAware
09:06AM 46.3660 45.6320 300° West 485 558 34,000  Level FlightAware
09:07AM 46.4150 45.5030 299° West 485 558 34,000  Level FlightAware
09:08AM 46.4450 45.4040 294° West 485 558 34,000  Level FlightAware
09:08AM 46.4840 45.2730 293° West 484 557 34,000  Level FlightAware
09:09AM 46.5240 45.1320 292° West 481 554 34,000  Level FlightAware
09:10AM 46.5630 44.9960 293° West 477 549 34,000  Level FlightAware
09:11AM 46.6010 44.8660 293° West 475 547 34,000  Level FlightAware
09:11AM 46.6360 44.7420 292° West 474 545 34,000  Level FlightAware
09:12AM 46.6690 44.6230 292° West 476 548 34,000  Level FlightAware
09:13AM 46.7040 44.5000 293° West 479 551 34,000  Level FlightAware
09:13AM 46.7370 44.3810 292° West 479 551 34,000  Level FlightAware
09:14AM 46.7710 44.2600 292° West 479 551 34,000  Level FlightAware
09:15AM 46.8060 44.1350 292° West 479 551 34,000  Level FlightAware
09:16AM 46.8560 43.9500 292° West 481 554 34,000  Level FlightAware
09:16AM 46.8890 43.8330 292° West 481 554 34,000  Level FlightAware
09:17AM 46.9260 43.6950 291° West 483 556 34,000  Level FlightAware
09:18AM 46.9690 43.5380 292° West 482 555 34,000  Level FlightAware
09:19AM 47.0050 43.4040 292° West 486 559 34,000  Level FlightAware
09:19AM 47.0380 43.2790 291° West 489 563 34,000  Level FlightAware
09:20AM 47.0710 43.1550 291° West 490 564 34,000  Level FlightAware
09:21AM 47.1080 43.0160 291° West 492 566 34,000  Level FlightAware
09:22AM 47.1400 42.8930 291° West 494 568 34,000  Level FlightAware
09:22AM 47.1770 42.7520 291° West 494 568 34,000  Level FlightAware
09:23AM 47.2090 42.6260 291° West 494 568 34,000  Level FlightAware
09:24AM 47.2420 42.5010 291° West 495 570 34,000  Level FlightAware
09:24AM 47.2790 42.3550 291° West 494 568 34,000  Level FlightAware
09:25AM 47.3110 42.2310 291° West 493 567 34,000  Level FlightAware
09:26AM 47.3610 42.0350 291° West 491 565 34,000  Level FlightAware
09:27AM 47.3880 41.9270 290° West 489 563 34,000  Level FlightAware
09:28AM 47.4290 41.7630 290° West 488 562 34,000  Level FlightAware
09:28AM 47.4560 41.6450 289° West 484 557 34,000  Level FlightAware
09:29AM 47.4570 41.5060 271° West 485 558 34,000  Level FlightAware
09:30AM 47.4390 41.3440 261° West 485 558 34,000  Level FlightAware
09:30AM 47.4280 41.2360 261° West 483 556 34,000  Level FlightAware
09:31AM 47.4120 41.0890 261° West 482 555 34,000  Level FlightAware
09:32AM 47.3960 40.9340 261° West 481 554 34,000  Level FlightAware
09:32AM 47.3800 40.8060 260° West 482 555 34,000  Level FlightAware
09:33AM 47.3630 40.6790 259° West 482 555 34,000  Level FlightAware
09:34AM 47.3440 40.5340 259° West 484 557 34,000  Level FlightAware
09:35AM 47.3250 40.3870 259° West 485 558 34,000  Level FlightAware
09:35AM 47.3110 40.2840 259° West 486 559 34,000  Level FlightAware
09:36AM 47.2930 40.1320 260° West 488 562 34,000  Level FlightAware
09:37AM 47.2780 40.0160 259° West 487 560 34,000  Level FlightAware
09:37AM 47.2640 39.9000 260° West 484 557 34,000  Level FlightAware
09:38AM 47.2660 39.7130 271° West 481 554 34,000  Level FlightAware
09:39AM 47.2740 39.5890 275° West 481 554 34,000  Level FlightAware
09:39AM 47.2880 39.4670 280° West 480 552 34,000  Level FlightAware
09:40AM 47.3210 39.3090 287° West 478 550 34,000  Level FlightAware
09:41AM 47.3820 39.1840 306° West 478 550 34,000  Level FlightAware
09:42AM 47.4050 39.0690 287° West 478 550 34,000  Level FlightAware
09:43AM 47.4450 38.8710 287° West 478 550 34,000  Level FlightAware
09:43AM 47.4690 38.7510 287° West 481 554 34,000  Level FlightAware
09:44AM 47.5000 38.5920 286° West 481 554 34,000  Level FlightAware
09:45AM 47.5240 38.4720 287° West 481 554 34,000  Level FlightAware
09:46AM 47.5640 38.2720 287° West 481 554 34,000  Level FlightAware
09:46AM 47.5870 38.1520 286° West 481 554 34,000 480 Level FlightAware
09:48AM 47.6470 37.8080 285° West 489 563 35,300 720 Climbing FlightAware
09:49AM 47.6670 37.6930 285° West 490 564 35,900 420 Climbing FlightAware
09:50AM 47.6680 37.4550 270° West 497 572 36,000  Climbing FlightAware
09:51AM 47.6370 37.3500 246° West 494 568 36,000  Level FlightAware
09:51AM 47.5980 37.2260 245° Southwest 489 563 36,000  Level FlightAware
09:52AM 47.5450 37.0610 245° Southwest 487 560 36,000  Level FlightAware
09:53AM 47.5000 36.9220 244° Southwest 489 563 36,000  Level FlightAware
09:54AM 47.4610 36.7970 245° Southwest 495 570 36,000 60 Level FlightAware
09:54AM 47.4360 36.6920 251° West 496 571 36,100  Climbing FlightAware
09:55AM 47.4400 36.5290 272° West 496 571 36,000 -120 Descending FlightAware
09:56AM 47.4790 36.3590 289° West 494 568 36,000  Level FlightAware
09:57AM 47.5130 36.2190 290° West 493 567 36,000  Level FlightAware
09:57AM 47.5430 36.0890 289° West 494 568 36,000  Level FlightAware
09:58AM 47.5730 35.9610 289° West 498 573 36,000  Level FlightAware
09:59AM 47.6060 35.8190 289° West 501 577 36,000  Level FlightAware
09:59AM 47.6370 35.6860 289° West 504 580 36,000  Level FlightAware
10:00AM 47.6700 35.5400 289° West 506 582 36,000  Level FlightAware
10:01AM 47.7010 35.4060 289° West 506 582 36,000  Level FlightAware
10:01AM 47.7300 35.2760 288° West 505 581 36,000  Level FlightAware
10:02AM 47.7600 35.1410 288° West 504 580 36,000  Level FlightAware
10:03AM 47.7860 35.0280 289° West 504 580 36,000  Level FlightAware
10:03AM 47.8100 34.9200 288° West 504 580 36,000  Level FlightAware
10:04AM 47.8430 34.7710 288° West 505 581 36,000  Level FlightAware
10:05AM 47.8750 34.6250 288° West 505 581 36,000  Level FlightAware
10:06AM 47.9050 34.4850 288° West 505 581 36,000  Level FlightAware
10:06AM 47.9350 34.3500 288° West 503 579 36,000  Level FlightAware
10:07AM 47.9700 34.1850 288° West 501 577 36,000  Level FlightAware
10:08AM 47.9970 34.0570 288° West 501 577 36,000  Level FlightAware
10:08AM 48.0320 33.8900 287° West 501 577 36,000  Level FlightAware
10:09AM 48.0600 33.7600 288° West 503 579 36,000  Level FlightAware
10:10AM 48.0870 33.6300 287° West 504 580 36,000  Level FlightAware
10:10AM 48.1150 33.4930 287° West 505 581 36,000  Level FlightAware
10:11AM 48.1520 33.3160 287° West 503 579 36,000  Level FlightAware
10:12AM 48.1790 33.1810 287° West 503 579 36,000  Level FlightAware
10:13AM 48.2060 33.0490 287° West 503 579 36,000  Level FlightAware
10:13AM 48.2370 32.8960 287° West 503 579 36,000  Level FlightAware
10:14AM 48.2620 32.7690 287° West 504 580 36,000  Level FlightAware
10:15AM 48.2870 32.6280 285° West 501 577 36,000  Level FlightAware
10:15AM 48.2930 32.4840 274° West 498 573 36,000  Level FlightAware
10:16AM 48.2990 32.3420 274° West 498 573 36,000  Level FlightAware
10:17AM 48.3100 32.2010 277° West 497 572 36,000  Level FlightAware
10:18AM 48.3200 32.0440 276° West 499 574 36,000  Level FlightAware
10:18AM 48.3300 31.9120 277° West 500 575 36,000  Level FlightAware
10:19AM 48.3410 31.7500 276° West 503 579 36,000  Level FlightAware
10:20AM 48.3510 31.6110 276° West 503 579 36,000  Level FlightAware
10:20AM 48.3600 31.4740 276° West 502 578 36,000  Level FlightAware
10:21AM 48.3710 31.3170 276° West 503 579 36,000  Level FlightAware
10:22AM 48.3920 31.1840 283° West 502 578 36,000  Level FlightAware
10:22AM 48.4280 31.0400 291° West 502 578 36,000  Level FlightAware
10:23AM 48.4600 30.9080 290° West 503 579 36,000  Level FlightAware
10:24AM 48.4910 30.7760 290° West 503 579 36,000  Level FlightAware
10:25AM 48.5270 30.6260 290° West 504 580 36,000  Level FlightAware
10:25AM 48.5590 30.4940 290° West 504 580 36,000  Level FlightAware
10:26AM 48.5900 30.3600 289° West 502 578 36,000  Level FlightAware
10:27AM 48.6250 30.2140 290° West 502 578 36,000  Level FlightAware
10:27AM 48.6560 30.0800 289° West 504 580 36,000  Level FlightAware
10:28AM 48.6910 29.9310 290° West 506 582 36,000  Level FlightAware
10:29AM 48.7220 29.7960 289° West 507 583 36,000  Level FlightAware
10:29AM 48.7530 29.6610 289° West 507 583 36,000  Level FlightAware
10:30AM 48.7860 29.5140 289° West 506 582 36,000  Level FlightAware
10:31AM 48.8170 29.3810 290° West 505 581 36,000  Level FlightAware
10:32AM 48.8510 29.2280 289° West 505 581 36,000  Level FlightAware
10:32AM 48.8840 29.0790 289° West 504 580 36,000  Level FlightAware
10:33AM 48.9140 28.9440 289° West 505 581 36,000  Level FlightAware
10:34AM 48.9430 28.8110 288° West 504 580 36,000  Level FlightAware
10:34AM 48.9770 28.6550 288° West 504 580 36,000  Level FlightAware
10:35AM 49.0050 28.5260 288° West 505 581 36,000  Level FlightAware
10:36AM 49.0390 28.3710 289° West 504 580 36,000  Level FlightAware
10:36AM 49.0680 28.2360 288° West 502 578 36,000  Level FlightAware
10:37AM 49.0960 28.1010 288° West 503 579 36,000  Level FlightAware
10:38AM 49.1280 27.9520 288° West 502 578 36,000  Level FlightAware
10:39AM 49.1560 27.8170 288° West 503 579 36,000  Level FlightAware
10:39AM 49.1830 27.6640 285° West 502 578 36,000  Level FlightAware
10:40AM 49.2030 27.5450 284° West 502 578 36,000  Level FlightAware
10:41AM 49.2300 27.3870 285° West 499 574 36,000  Level FlightAware
10:41AM 49.2560 27.2370 285° West 495 570 36,000  Level FlightAware
10:42AM 49.2790 27.1060 285° West 490 564 36,000  Level FlightAware
10:43AM 49.3020 26.9700 285° West 487 560 36,000  Level FlightAware
10:43AM 49.3270 26.8180 284° West 485 558 36,000  Level FlightAware
10:44AM 49.3500 26.6860 285° West 483 556 36,000  Level FlightAware
10:45AM 49.3740 26.5400 284° West 481 554 36,000  Level FlightAware
10:46AM 49.3960 26.4080 284° West 480 552 36,000  Level FlightAware
10:46AM 49.4170 26.2760 284° West 481 554 36,000  Level FlightAware
10:47AM 49.4420 26.1240 284° West 480 552 36,000  Level FlightAware
10:48AM 49.4580 26.0200 283° West 482 555 36,000  Level FlightAware
10:48AM 49.4840 25.8590 284° West 483 556 36,000  Level FlightAware
10:49AM 49.5070 25.7100 283° West 483 556 36,000  Level FlightAware
10:50AM 49.5250 25.5970 284° West 484 557 36,000  Level FlightAware
10:50AM 49.5500 25.4360 284° West 482 555 36,000  Level FlightAware
10:51AM 49.5670 25.3240 283° West 482 555 36,000  Level FlightAware
10:52AM 49.5890 25.1800 283° West 482 555 36,000  Level FlightAware
10:53AM 49.6130 25.0220 283° West 482 555 36,000  Level FlightAware
10:53AM 49.6320 24.8970 283° West 482 555 36,000  Level FlightAware
10:54AM 49.6470 24.7890 282° West 483 556 36,000  Level FlightAware
10:55AM 49.6790 24.5720 283° West 481 554 36,000  Level FlightAware
10:56AM 49.7080 24.3770 283° West 480 552 36,000  Level FlightAware
10:56AM 49.7260 24.2450 282° West 479 551 36,000  Level FlightAware
10:57AM 49.7480 24.0940 283° West 479 551 36,000  Level FlightAware
10:58AM 49.7670 23.9570 282° West 477 549 36,000  Level FlightAware
10:59AM 49.7860 23.8180 282° West 477 549 36,000  Level FlightAware
10:59AM 49.8050 23.6850 283° West 476 548 36,000  Level FlightAware
11:00AM 49.8230 23.5470 281° West 475 547 36,000  Level FlightAware
11:01AM 49.8440 23.3920 282° West 476 548 36,000  Level FlightAware
11:02AM 49.8680 23.2120 282° West 471 542 36,000  Level FlightAware
11:02AM 49.8840 23.0800 281° West 469 540 36,000  Level FlightAware
11:03AM 49.8930 22.9240 275° West 466 536 36,000  Level FlightAware
11:04AM 49.8970 22.7750 272° West 461 531 36,000  Level FlightAware
11:04AM 49.9010 22.6310 273° West 459 528 36,000  Level FlightAware
11:05AM 49.9040 22.5060 272° West 457 526 36,000  Level FlightAware
11:06AM 49.9070 22.3530 272° West 455 524 36,000  Level FlightAware
11:07AM 49.9110 22.2210 273° West 454 522 36,000  Level FlightAware
11:07AM 49.9140 22.0800 272° West 454 522 36,000  Level FlightAware
11:08AM 49.9170 21.9490 272° West 454 522 36,000  Level FlightAware
11:09AM 49.9190 21.8290 272° West 455 524 36,000  Level FlightAware
11:09AM 49.9220 21.6700 272° West 454 522 36,000  Level FlightAware
11:10AM 49.9240 21.5430 271° West 454 522 36,000  Level FlightAware
11:11AM 49.9270 21.3990 272° West 455 524 36,000  Level FlightAware
11:11AM 49.9290 21.2820 272° West 456 525 36,000  Level FlightAware
11:12AM 49.9310 21.1360 271° West 456 525 36,000  Level FlightAware
11:13AM 49.9330 20.9850 271° West 457 526 36,000  Level FlightAware
11:13AM 49.9340 20.8750 271° West 457 526 36,000  Level FlightAware
11:14AM 49.9350 20.7110 271° West 456 525 36,000  Level FlightAware
11:15AM 49.9360 20.5790 271° West 455 524 36,000  Level FlightAware
11:16AM 49.9380 20.4500 271° West 455 524 36,000  Level FlightAware
11:16AM 49.9390 20.3070 271° West 455 524 36,000  Level FlightAware
11:17AM 49.9390 20.1780 270° West 455 524 36,000  Level FlightAware
11:18AM 49.9400 20.0250 271° West 455 524 36,000  Level FlightAware
11:18AM 49.9400 19.9030 270° West 454 522 36,000  Level FlightAware
11:19AM 49.9410 19.7670 271° West 453 521 36,000  Level FlightAware
11:20AM 49.9410 19.6170 270° West 453 521 36,000  Level FlightAware
11:21AM 49.9410 19.4960 270° West 452 520 36,000  Level FlightAware
11:21AM 49.9410 19.3590 270° West 451 519 36,000  Level FlightAware
11:22AM 49.9410 19.2190 270° West 451 519 36,000  Level FlightAware
11:23AM 49.9410 19.0890 270° West 452 520 36,000  Level FlightAware
11:23AM 49.9400 18.9390 269° West 452 520 36,000  Level FlightAware
11:24AM 49.9390 18.8110 269° West 453 521 36,000  Level FlightAware
11:25AM 49.9380 18.6810 269° West 453 521 36,000  Level FlightAware
11:25AM 49.9370 18.5380 269° West 454 522 36,000  Level FlightAware
11:26AM 49.9350 18.4080 269° West 455 524 36,000  Level FlightAware
11:27AM 49.9340 18.2590 269° West 456 525 36,000  Level FlightAware
11:28AM 49.9320 18.1280 269° West 457 526 36,000  Level FlightAware
11:28AM 49.9340 17.9970 271° West 461 531 36,000  Level FlightAware
11:29AM 49.9430 17.8550 276° West 462 532 36,000  Level FlightAware
11:30AM 49.9510 17.7190 275° West 463 533 36,000  Level FlightAware
11:30AM 49.9580 17.5850 275° West 464 534 36,000  Level FlightAware
11:31AM 49.9660 17.4400 275° West 465 535 36,000  Level FlightAware
11:32AM 49.9740 17.3070 275° West 466 536 36,000  Level FlightAware
11:32AM 49.9820 17.1540 275° West 464 534 36,000  Level FlightAware
11:33AM 49.9880 17.0290 274° West 463 533 36,000  Level FlightAware
11:34AM 49.9960 16.8710 275° West 463 533 36,000  Level FlightAware
11:35AM 50.0020 16.7450 274° West 461 531 36,000  Level FlightAware
11:35AM 50.0090 16.6130 275° West 461 531 36,000  Level FlightAware
11:36AM 50.0160 16.4650 274° West 462 532 36,000  Level FlightAware
11:37AM 50.0220 16.3340 274° West 464 534 36,000  Level FlightAware
11:37AM 50.0280 16.1950 274° West 466 536 36,000  Level FlightAware
11:38AM 50.0340 16.0570 274° West 466 536 36,000  Level FlightAware
11:39AM 50.0390 15.9300 274° West 468 539 36,000  Level FlightAware
11:39AM 50.0460 15.7640 274° West 469 540 36,000  Level FlightAware
11:40AM 50.0510 15.6260 273° West 470 541 36,000  Level FlightAware
11:41AM 50.0560 15.4930 273° West 470 541 36,000  Level FlightAware
11:42AM 50.0620 15.3360 273° West 471 542 36,000  Level FlightAware
11:42AM 50.0670 15.2080 274° West 470 541 36,000  Level FlightAware
11:43AM 50.0720 15.0680 273° West 468 539 36,000  Level FlightAware
11:44AM 50.0760 14.9320 273° West 464 534 36,000  Level FlightAware
11:44AM 50.0810 14.7890 273° West 462 532 36,000  Level FlightAware
11:45AM 50.0860 14.6340 273° West 462 532 36,000  Level FlightAware
11:46AM 50.0900 14.5010 273° West 464 534 36,000  Level FlightAware
11:46AM 50.0940 14.3700 273° West 466 536 36,000  Level FlightAware
11:47AM 50.0970 14.2210 272° West 468 539 36,000  Level FlightAware
11:49AM 50.0970 13.9480 270° West 468 539 36,000  Level FlightAware
11:49AM 50.0970 13.7870 270° West 468 539 36,000  Level FlightAware
11:50AM 50.0970 13.6830 270° West 468 539 36,000  Level FlightAware
11:51AM 50.0940 13.5170 268° West 469 540 36,000 -240 Level FlightAware
11:51AM 50.0820 13.3650 263° West 461 531 35,700 -720 Descending FlightAware
11:52AM 50.0640 13.2430 257° West 464 534 35,000 -720 Descending FlightAware
11:53AM 50.0450 13.1120 257° West 468 539 34,800 -1,020 Descending FlightAware
11:53AM 50.0240 12.9620 258° West 462 532 33,600 -1,680 Descending FlightAware
11:54AM 50.0030 12.8150 258° West 454 522 32,300 -1,680 Descending FlightAware
11:55AM 49.9830 12.6840 257° West 465 535 31,300 -1,500 Descending FlightAware
11:56AM 49.9650 12.5620 257° West 462 532 30,300 -960 Descending FlightAware
11:56AM 49.9440 12.4160 257° West 458 527 30,000 -240 Descending FlightAware
11:57AM 49.9270 12.3000 257° West 459 528 30,000  Level FlightAware
11:58AM 49.9240 12.1400 268° West 484 557 30,000  Level FlightAware
11:58AM 49.9600 12.0020 292° West 496 571 30,000  Level FlightAware
11:59AM 49.9980 11.8710 294° West 494 568 30,000  Level FlightAware
12:00PM 50.0330 11.7230 290° West 491 565 30,000  Level FlightAware
12:00PM 50.0620 11.5920 289° West 491 565 30,000 -780 Level FlightAware
12:01PM 50.0940 11.4420 288° West 497 572 28,900 -1,800 Descending FlightAware
12:02PM 50.1230 11.3060 288° West 483 556 27,500 -2,100 Descending FlightAware
12:03PM 50.1500 11.1790 288° West 471 542 26,100 -2,100 Descending FlightAware
12:03PM 50.1780 11.0490 289° West 458 527 24,700 -2,160 Descending FlightAware
12:04PM 50.2080 10.9050 288° West 446 513 23,100 -2,160 Descending FlightAware
12:05PM 50.2320 10.7860 288° West 436 502 21,700 -1,980 Descending FlightAware
12:05PM 50.2570 10.6690 289° West 429 494 20,300 -1,200 Descending FlightAware
12:06PM 50.2830 10.5420 288° West 411 473 20,000 -240 Descending FlightAware
12:07PM 50.3100 10.4090 288° West 411 473 20,000  Level FlightAware
12:07PM 50.3240 10.2960 281° West 409 471 20,000 -120 Level FlightAware
12:08PM 50.3340 10.1770 278° West 407 468 19,900 -1,020 Descending FlightAware
12:09PM 50.3440 10.0500 277° West 395 455 18,600 -1,980 Descending FlightAware
12:10PM 50.3520 9.9400 277° West 394 453 17,100 -2,580 Descending FlightAware
12:10PM 50.3600 9.8350 277° West 403 464 15,400 -2,400 Descending FlightAware
12:11PM 50.3660 9.7390 276° West 386 444 14,300 -2,220 Descending FlightAware
12:11PM 50.3700 9.6840 277° West 379 436 13,400 -2,880 Descending FlightAware
12:12PM 50.3600 9.6050 259° West 369 425 11,900 -2,400 Descending FlightAware
12:12PM 50.3390 9.5330 245° Southwest 345 397 11,000 -2,100 Descending FlightAware
12:13PM 50.3180 9.4690 243° Southwest 343 395 9,800 -2,340 Descending FlightAware
12:13PM 50.2970 9.4110 240° Southwest 340 391 8,900 -1,800 Descending FlightAware
12:13PM 50.2750 9.3470 242° Southwest 333 383 8,200 -1,620 Descending FlightAware
12:14PM 50.2650 9.3170 242° Southwest 328 377 7,700 -2,280 Descending FlightAware
12:14PM 50.2470 9.2670 241° Southwest 324 373 6,700 -1,980 Descending FlightAware
12:15PM 50.2260 9.2040 242° Southwest 307 353 5,900 -1,380 Descending FlightAware
12:15PM 50.2160 9.1770 240° Southwest 294 338 5,700 -600 Descending FlightAware
12:15PM 50.2000 9.1310 241° Southwest 272 313 5,500 -480 Descending FlightAware
12:16PM 50.1830 9.0800 243° Southwest 270 311 5,300 -600 Descending FlightAware
12:16PM 50.1640 9.0280 240° Southwest 268 308 4,900 -780 Descending FlightAware
12:17PM 50.1500 8.9880 241° Southwest 268 308 4,600 -480 Descending FlightAware
12:17PM 50.1330 8.9380 242° Southwest 254 292 4,500 -120 Descending FlightAware
12:18PM 50.1190 8.8980 241° Southwest 236 272 4,500  Level FlightAware
12:18PM 50.1040 8.8560 241° Southwest 212 244 4,500 -540 Level FlightAware
12:19PM 50.0940 8.8130 250° West 203 234 4,000 -1,140 Descending FlightAware
12:19PM 50.0860 8.7810 249° West 191 220 3,500 -1,140 Descending FlightAware
12:20PM 50.0780 8.7440 251° West 173 199 3,000 -1,020 Descending FlightAware
12:20PM 50.0710 8.7150 249° West 167 192 2,600 -900 Descending FlightAware
12:20PM 50.0670 8.6990 249° West 167 192 2,400 -840 Descending FlightAware
12:21PM 50.0590 8.6650 250° West 166 191 2,000 -900 Descending FlightAware
12:21PM 50.0520 8.6360 249° West 167 192 1,600 -1,020 Descending FlightAware
12:22PM 50.0440 8.6030 249° West 163 188 1,100 -1,020 Descending FlightAware